createdAt,value
2019-03-09T00:01:02.516Z,4.13
2019-03-09T00:03:30.856Z,3.70
2019-03-09T00:05:59.228Z,4.50
2019-03-09T00:08:27.774Z,4.30
2019-03-09T00:10:56.167Z,4.70
2019-03-09T00:13:24.612Z,4.47
2019-03-09T00:15:53.113Z,5.50
2019-03-09T00:18:21.589Z,4.83
2019-03-09T00:20:50.029Z,4.80
2019-03-09T00:23:40.616Z,4.80
2019-03-09T00:26:16.807Z,4.07
2019-03-09T00:28:59.988Z,4.63
2019-03-09T00:31:35.194Z,4.17
2019-03-09T00:34:03.710Z,4.40
2019-03-09T00:36:38.199Z,4.60
2019-03-09T00:39:06.813Z,3.63
2019-03-09T00:41:35.203Z,4.60
2019-03-09T00:44:03.746Z,5.57
2019-03-09T00:46:32.224Z,5.53
2019-03-09T00:49:02.064Z,4.43
2019-03-09T00:51:30.559Z,4.47
2019-03-09T00:53:59.449Z,5.30
2019-03-09T00:56:27.966Z,4.60
2019-03-09T00:58:56.416Z,5.00
2019-03-09T01:01:24.896Z,4.90
2019-03-09T01:03:53.348Z,5.10
2019-03-09T01:06:21.784Z,4.80
2019-03-09T01:08:50.256Z,4.40
2019-03-09T01:11:18.657Z,4.63
2019-03-09T01:13:47.035Z,3.80
2019-03-09T01:16:15.524Z,4.20
2019-03-09T01:18:43.970Z,3.97
2019-03-09T01:21:12.441Z,4.30
2019-03-09T01:23:41.000Z,4.07
2019-03-09T01:26:09.469Z,4.90
2019-03-09T01:28:37.960Z,5.80
2019-03-09T01:31:06.564Z,4.77
2019-03-09T01:33:35.012Z,5.20
2019-03-09T01:36:03.575Z,5.97
2019-03-09T01:38:32.102Z,5.50
2019-03-09T01:41:00.536Z,4.37
2019-03-09T01:43:29.000Z,5.07
2019-03-09T01:45:57.464Z,4.87
2019-03-09T01:48:25.844Z,4.53
2019-03-09T01:50:54.384Z,5.37
2019-03-09T01:53:22.979Z,5.00
2019-03-09T01:55:51.450Z,5.43
2019-03-09T01:58:19.916Z,6.23
2019-03-09T02:00:48.364Z,5.23
2019-03-09T02:03:16.860Z,6.27
2019-03-09T02:05:45.421Z,6.03
2019-03-09T02:08:13.909Z,8.03
2019-03-09T02:10:42.408Z,6.93
2019-03-09T02:13:10.780Z,6.90
2019-03-09T02:15:39.336Z,6.90
2019-03-09T02:18:07.791Z,7.13
2019-03-09T02:20:36.236Z,7.10
2019-03-09T02:23:04.723Z,8.57
2019-03-09T02:25:33.167Z,7.00
2019-03-09T02:28:01.631Z,7.33
2019-03-09T02:30:30.031Z,7.50
2019-03-09T02:32:58.492Z,8.03
2019-03-09T02:35:27.021Z,8.17
2019-03-09T02:37:57.252Z,7.27
2019-03-09T02:40:26.284Z,7.07
2019-03-09T02:42:54.769Z,8.23
2019-03-09T02:45:23.593Z,6.80
2019-03-09T02:47:52.088Z,8.13
2019-03-09T02:50:20.534Z,7.73
2019-03-09T02:52:49.775Z,8.40
2019-03-09T02:55:18.269Z,7.73
2019-03-09T02:57:46.766Z,8.17
2019-03-09T03:00:16.052Z,8.07
2019-03-09T03:02:47.982Z,8.03
2019-03-09T03:05:16.551Z,9.00
2019-03-09T03:07:45.076Z,7.67
2019-03-09T03:10:13.587Z,7.80
2019-03-09T03:12:42.106Z,8.37
2019-03-09T03:15:10.720Z,8.03
2019-03-09T03:17:39.217Z,7.57
2019-03-09T03:20:07.921Z,8.47
2019-03-09T03:22:36.587Z,8.80
2019-03-09T03:25:05.189Z,7.57
2019-03-09T03:27:33.681Z,8.10
2019-03-09T03:30:02.275Z,8.50
2019-03-09T03:32:33.888Z,8.57
2019-03-09T03:35:02.451Z,7.13
2019-03-09T03:37:31.232Z,7.40
2019-03-09T03:39:59.700Z,7.93
2019-03-09T03:42:28.161Z,8.20
2019-03-09T03:44:56.804Z,8.73
2019-03-09T03:47:25.243Z,8.53
2019-03-09T03:49:53.787Z,9.80
2019-03-09T03:52:22.441Z,8.40
2019-03-09T03:54:50.879Z,9.47
2019-03-09T03:57:19.321Z,9.10
2019-03-09T03:59:48.093Z,9.57
2019-03-09T04:02:16.650Z,9.97
2019-03-09T04:04:45.124Z,9.60
2019-03-09T04:07:13.820Z,10.30
2019-03-09T04:09:42.421Z,9.73
2019-03-09T04:12:10.946Z,10.33
2019-03-09T04:14:39.433Z,10.67
2019-03-09T04:17:07.888Z,11.77
2019-03-09T04:19:36.411Z,11.20
2019-03-09T04:22:04.977Z,10.27
2019-03-09T04:24:33.522Z,10.83
2019-03-09T04:27:02.035Z,10.13
2019-03-09T04:29:30.527Z,11.73
2019-03-09T04:31:58.960Z,11.37
2019-03-09T04:34:27.438Z,12.10
2019-03-09T04:36:59.024Z,11.80
2019-03-09T04:39:27.521Z,11.53
2019-03-09T04:41:57.007Z,12.27
2019-03-09T04:44:27.165Z,13.10
2019-03-09T04:46:55.819Z,13.67
2019-03-09T04:49:24.267Z,13.20
2019-03-09T04:51:52.712Z,13.90
2019-03-09T04:54:21.099Z,13.57
2019-03-09T04:56:49.626Z,13.13
2019-03-09T04:59:18.047Z,14.73
2019-03-09T05:01:46.482Z,15.20
2019-03-09T05:04:32.816Z,14.17
2019-03-09T05:07:01.209Z,14.70
2019-03-09T05:09:51.743Z,15.30
2019-03-09T05:12:20.192Z,15.60
2019-03-09T05:14:48.680Z,17.20
2019-03-09T05:17:17.361Z,15.53
2019-03-09T05:19:46.344Z,15.83
2019-03-09T05:22:14.838Z,15.03
2019-03-09T05:24:43.245Z,14.53
2019-03-09T05:27:11.647Z,14.63
2019-03-09T05:29:40.100Z,14.20
2019-03-09T05:32:08.572Z,13.60
2019-03-09T05:34:37.102Z,14.23
2019-03-09T05:37:07.160Z,15.47
2019-03-09T05:39:35.661Z,14.07
2019-03-09T05:42:04.131Z,14.40
2019-03-09T05:44:32.519Z,13.97
2019-03-09T05:47:01.012Z,14.60
2019-03-09T05:49:29.386Z,14.20
2019-03-09T05:52:15.708Z,14.47
2019-03-09T05:54:44.089Z,14.37
2019-03-09T05:57:12.474Z,15.03
2019-03-09T05:59:40.979Z,14.43
2019-03-09T06:02:09.454Z,14.73
2019-03-09T06:04:37.911Z,14.73
2019-03-09T06:07:06.439Z,14.30
2019-03-09T06:09:34.956Z,15.07
2019-03-09T06:12:10.465Z,15.23
2019-03-09T06:14:38.848Z,15.03
2019-03-09T06:17:07.331Z,14.63
2019-03-09T06:19:35.840Z,14.07
2019-03-09T06:22:04.303Z,14.50
2019-03-09T06:24:32.748Z,15.63
2019-03-09T06:27:01.424Z,17.47
2019-03-09T06:29:29.909Z,17.60
2019-03-09T06:32:16.568Z,16.70
2019-03-09T06:34:44.979Z,18.27
2019-03-09T06:37:15.890Z,18.17
2019-03-09T06:39:46.261Z,16.53
2019-03-09T06:42:20.313Z,16.60
2019-03-09T06:44:48.790Z,16.00
2019-03-09T06:47:17.243Z,16.30
2019-03-09T06:49:45.729Z,15.40
2019-03-09T06:52:14.218Z,15.47
2019-03-09T06:54:42.696Z,13.80
2019-03-09T06:57:14.033Z,15.03
2019-03-09T06:59:41.381Z,13.43
2019-03-09T07:02:09.862Z,13.00
2019-03-09T07:04:38.367Z,13.77
2019-03-09T07:07:06.800Z,13.50
2019-03-09T07:09:35.187Z,12.77
2019-03-09T07:12:03.628Z,12.67
2019-03-09T07:15:09.581Z,14.00
2019-03-09T07:17:37.958Z,13.63
2019-03-09T07:20:12.602Z,13.90
2019-03-09T07:22:37.136Z,13.87
2019-03-09T07:25:05.847Z,13.77
2019-03-09T07:27:34.272Z,14.03
2019-03-09T07:30:02.816Z,14.73
2019-03-09T07:32:31.212Z,16.53
2019-03-09T07:34:59.675Z,13.97
2019-03-09T07:37:29.085Z,15.10
2019-03-09T07:39:57.650Z,14.70
2019-03-09T07:42:26.156Z,14.93
2019-03-09T07:44:54.758Z,15.33
2019-03-09T07:47:23.246Z,14.80
2019-03-09T07:49:51.748Z,15.03
2019-03-09T07:52:30.554Z,13.77
2019-03-09T07:54:59.152Z,13.87
2019-03-09T07:57:27.727Z,13.87
2019-03-09T07:59:56.186Z,14.73
2019-03-09T08:02:24.705Z,14.70
2019-03-09T08:04:53.176Z,13.40
2019-03-09T08:07:21.717Z,14.00
2019-03-09T08:09:50.291Z,14.10
2019-03-09T08:12:18.750Z,13.57
2019-03-09T08:14:47.213Z,13.83
2019-03-09T08:17:15.671Z,14.00
2019-03-09T08:19:44.176Z,13.43
2019-03-09T08:22:12.664Z,13.87
2019-03-09T08:24:41.074Z,12.90
2019-03-09T08:27:09.604Z,14.23
2019-03-09T08:29:38.416Z,14.73
2019-03-09T08:32:06.901Z,15.60
2019-03-09T08:34:35.320Z,14.97
2019-03-09T08:37:03.811Z,16.10
2019-03-09T08:39:32.247Z,14.63
2019-03-09T08:42:02.831Z,14.63
2019-03-09T08:44:31.286Z,13.17
2019-03-09T08:46:59.796Z,14.57
2019-03-09T08:49:28.310Z,13.03
2019-03-09T08:51:57.045Z,13.67
2019-03-09T08:54:25.497Z,13.70
2019-03-09T08:56:53.964Z,13.43
2019-03-09T08:59:22.533Z,12.37
2019-03-09T09:01:51.156Z,13.87
2019-03-09T09:04:19.554Z,13.30
2019-03-09T09:06:48.458Z,13.20
2019-03-09T09:09:16.857Z,11.40
2019-03-09T09:11:45.318Z,11.97
2019-03-09T09:14:14.181Z,11.93
2019-03-09T09:16:42.649Z,11.83
2019-03-09T09:19:44.203Z,13.10
2019-03-09T09:22:12.592Z,12.97
2019-03-09T09:24:41.046Z,12.67
2019-03-09T09:27:09.540Z,13.23
2019-03-09T09:29:38.140Z,13.53
2019-03-09T09:32:06.694Z,14.17
2019-03-09T09:34:35.121Z,13.97
2019-03-09T09:37:03.496Z,13.83
2019-03-09T09:39:32.017Z,14.97
2019-03-09T09:42:00.504Z,14.70
2019-03-09T09:44:28.954Z,14.43
2019-03-09T09:46:57.416Z,13.80
2019-03-09T09:49:25.916Z,13.93
2019-03-09T09:51:54.292Z,13.03
2019-03-09T09:54:22.841Z,13.60
2019-03-09T09:56:51.328Z,12.07
2019-03-09T09:59:21.137Z,11.77
2019-03-09T10:01:49.632Z,12.33
2019-03-09T10:04:18.039Z,11.50
2019-03-09T10:06:46.492Z,12.20
2019-03-09T10:09:14.946Z,11.63
2019-03-09T10:11:43.912Z,11.00
2019-03-09T10:14:13.412Z,11.83
2019-03-09T10:16:41.788Z,11.37
2019-03-09T10:19:11.255Z,11.77
2019-03-09T10:21:40.122Z,10.33
2019-03-09T10:24:08.572Z,10.10
2019-03-09T10:26:36.989Z,11.23
2019-03-09T10:29:05.384Z,10.13
2019-03-09T10:31:33.923Z,8.53
2019-03-09T10:34:02.401Z,8.67
2019-03-09T10:36:30.785Z,8.80
2019-03-09T10:38:59.316Z,7.87
2019-03-09T10:41:27.801Z,7.57
2019-03-09T10:43:56.240Z,7.73
2019-03-09T10:46:24.664Z,6.13
2019-03-09T10:48:53.088Z,6.10
2019-03-09T10:51:22.631Z,5.60
2019-03-09T10:53:51.195Z,5.23
2019-03-09T10:56:19.696Z,4.90
2019-03-09T10:58:51.303Z,5.30
2019-03-09T11:01:19.791Z,4.80
2019-03-09T11:03:48.335Z,5.30
2019-03-09T11:06:16.781Z,5.43
2019-03-09T11:08:45.192Z,5.17
2019-03-09T11:11:13.730Z,5.37
2019-03-09T11:13:51.447Z,5.53
2019-03-09T11:16:12.672Z,4.50
2019-03-09T11:18:41.180Z,4.67
2019-03-09T11:21:09.653Z,5.23
2019-03-09T11:23:38.057Z,4.23
2019-03-09T11:26:06.690Z,5.37
2019-03-09T11:28:35.163Z,4.03
2019-03-09T11:31:03.674Z,4.57
2019-03-09T11:33:32.114Z,4.67
2019-03-09T11:36:00.571Z,4.77
2019-03-09T11:38:29.044Z,4.60
2019-03-09T11:41:00.615Z,3.80
2019-03-09T11:43:27.825Z,3.87
2019-03-09T11:46:00.352Z,4.50
2019-03-09T11:48:28.822Z,3.70
2019-03-09T11:50:57.384Z,3.27
2019-03-09T11:53:25.820Z,3.33
2019-03-09T11:55:54.352Z,3.17
2019-03-09T11:58:22.819Z,3.83
2019-03-09T12:00:51.517Z,3.33
2019-03-09T12:03:20.057Z,4.33
2019-03-09T12:05:48.517Z,4.20
2019-03-09T12:08:52.507Z,3.57
2019-03-09T12:11:51.189Z,3.73
2019-03-09T12:14:19.685Z,3.77
2019-03-09T12:16:48.216Z,4.10
2019-03-09T12:19:16.739Z,4.33
2019-03-09T12:21:46.241Z,3.90
2019-03-09T12:24:17.728Z,4.67
2019-03-09T12:26:45.080Z,4.67
2019-03-09T12:29:13.531Z,4.00
2019-03-09T12:31:41.980Z,3.47
2019-03-09T12:34:12.466Z,3.63
2019-03-09T12:36:41.057Z,3.33
2019-03-09T12:39:09.666Z,3.27
2019-03-09T12:41:39.262Z,3.70
2019-03-09T12:44:07.808Z,3.60
2019-03-09T12:46:36.284Z,3.70
2019-03-09T12:49:04.744Z,3.47
2019-03-09T12:51:33.251Z,3.50
2019-03-09T12:54:01.623Z,3.60
2019-03-09T12:56:30.058Z,3.07
2019-03-09T12:58:58.595Z,3.07
2019-03-09T13:01:27.234Z,2.50
2019-03-09T13:03:55.696Z,2.87
2019-03-09T13:06:24.180Z,3.03
2019-03-09T13:08:52.746Z,2.80
2019-03-09T13:11:21.257Z,2.80
2019-03-09T13:13:49.731Z,2.40
2019-03-09T13:16:18.252Z,2.50
2019-03-09T13:18:46.658Z,3.17
2019-03-09T13:21:15.236Z,2.10
2019-03-09T13:23:43.811Z,2.60
2019-03-09T13:26:12.264Z,2.63
2019-03-09T13:28:40.767Z,2.07
2019-03-09T13:31:09.336Z,2.60
2019-03-09T13:33:38.874Z,3.20
2019-03-09T13:36:07.605Z,2.97
2019-03-09T13:38:36.077Z,3.70
2019-03-09T13:41:04.545Z,3.67
2019-03-09T13:43:33.079Z,3.60
2019-03-09T13:46:01.570Z,4.33
2019-03-09T13:48:29.947Z,4.20
2019-03-09T13:50:58.434Z,4.27
2019-03-09T13:53:26.817Z,4.83
2019-03-09T13:55:55.301Z,5.03
2019-03-09T13:58:24.080Z,5.27
2019-03-09T14:00:52.529Z,5.53
2019-03-09T14:03:21.076Z,5.53
2019-03-09T14:05:49.640Z,4.70
2019-03-09T14:08:18.120Z,5.77
2019-03-09T14:10:46.747Z,6.53
2019-03-09T14:13:15.594Z,6.97
2019-03-09T14:15:44.059Z,6.53
2019-03-09T14:18:12.552Z,6.10
2019-03-09T14:20:41.076Z,5.80
2019-03-09T14:23:09.530Z,5.33
2019-03-09T14:25:37.970Z,4.63
2019-03-09T14:28:06.481Z,4.93
2019-03-09T14:30:35.065Z,5.13
2019-03-09T14:33:05.739Z,5.23
2019-03-09T14:35:34.205Z,5.00
2019-03-09T14:38:02.717Z,4.87
2019-03-09T14:40:32.302Z,4.97
2019-03-09T14:43:00.781Z,5.10
2019-03-09T14:45:29.264Z,4.77
2019-03-09T14:47:57.824Z,4.50
2019-03-09T14:50:26.420Z,4.83
2019-03-09T14:52:54.940Z,4.60
2019-03-09T14:55:23.463Z,4.07
2019-03-09T14:57:51.996Z,4.20
2019-03-09T15:00:20.608Z,6.07
2019-03-09T15:02:50.107Z,4.13
2019-03-09T15:05:18.747Z,4.80
2019-03-09T15:07:47.259Z,4.67
2019-03-09T15:10:16.164Z,4.50
2019-03-09T15:12:44.741Z,3.73
2019-03-09T15:15:13.366Z,4.87
2019-03-09T15:17:42.151Z,4.70
2019-03-09T15:20:11.736Z,5.17
2019-03-09T15:22:40.264Z,5.40
2019-03-09T15:25:09.112Z,7.10
2019-03-09T15:27:37.813Z,6.87
2019-03-09T15:30:06.876Z,6.13
2019-03-09T15:32:35.358Z,7.37
2019-03-09T15:35:04.260Z,6.87
2019-03-09T15:37:32.889Z,9.13
2019-03-09T15:40:01.445Z,7.60
2019-03-09T15:42:30.016Z,4.70
2019-03-09T15:44:58.515Z,2.20
2019-03-09T15:47:27.033Z,2.97
2019-03-09T15:49:55.506Z,2.20
2019-03-09T15:52:23.960Z,2.53
2019-03-09T15:54:52.713Z,2.50
2019-03-09T15:57:21.222Z,3.50
2019-03-09T15:59:49.687Z,3.27
2019-03-09T16:02:18.126Z,3.70
2019-03-09T16:04:46.626Z,3.00
2019-03-09T16:07:15.093Z,2.50
2019-03-09T16:09:43.604Z,2.50
2019-03-09T16:12:12.223Z,3.20
2019-03-09T16:14:40.805Z,2.63
2019-03-09T16:17:09.152Z,2.93
2019-03-09T16:19:39.129Z,2.00
2019-03-09T16:22:07.601Z,2.10
2019-03-09T16:24:36.142Z,1.87
2019-03-09T16:27:04.632Z,1.80
2019-03-09T16:29:33.049Z,2.17
2019-03-09T16:32:02.556Z,1.30
2019-03-09T16:34:30.992Z,1.80
2019-03-09T16:37:04.477Z,1.60
2019-03-09T16:39:32.911Z,1.73
2019-03-09T16:42:02.418Z,1.73
2019-03-09T16:44:31.106Z,1.77
2019-03-09T16:46:59.458Z,2.10
2019-03-09T16:49:27.837Z,1.87
2019-03-09T16:51:59.468Z,1.60
2019-03-09T16:54:28.915Z,1.83
2019-03-09T16:56:58.637Z,2.10
2019-03-09T16:59:27.098Z,1.90
2019-03-09T17:01:55.534Z,2.20
2019-03-09T17:04:25.500Z,2.27
2019-03-09T17:06:58.063Z,2.20
2019-03-09T17:09:26.491Z,2.63
2019-03-09T17:11:54.970Z,2.83
2019-03-09T17:14:23.592Z,2.77
2019-03-09T17:16:52.111Z,2.43
2019-03-09T17:19:20.568Z,2.57
2019-03-09T17:21:51.407Z,2.63
2019-03-09T17:24:19.980Z,2.13
2019-03-09T17:26:48.347Z,2.50
2019-03-09T17:29:16.795Z,2.43
2019-03-09T17:31:45.340Z,3.00
2019-03-09T17:34:13.796Z,2.10
2019-03-09T17:36:42.229Z,3.10
2019-03-09T17:39:10.692Z,2.63
2019-03-09T17:41:41.163Z,2.63
2019-03-09T17:44:09.611Z,3.57
2019-03-09T17:46:38.011Z,3.07
2019-03-09T17:49:06.380Z,2.60
2019-03-09T17:51:34.898Z,3.17
2019-03-09T17:54:03.351Z,3.23
2019-03-09T17:56:31.772Z,2.77
2019-03-09T17:59:00.603Z,2.90
2019-03-09T18:01:29.059Z,2.90
2019-03-09T18:03:59.557Z,2.47
2019-03-09T18:06:29.986Z,2.83
2019-03-09T18:08:58.479Z,3.60
2019-03-09T18:11:26.968Z,3.93
2019-03-09T18:14:06.352Z,3.17
2019-03-09T18:16:26.719Z,3.33
2019-03-09T18:18:55.145Z,3.10
2019-03-09T18:21:23.819Z,2.80
2019-03-09T18:23:52.281Z,4.07
2019-03-09T18:26:20.748Z,3.17
2019-03-09T18:28:49.127Z,3.37
2019-03-09T18:31:17.692Z,3.10
2019-03-09T18:33:46.203Z,3.17
2019-03-09T18:36:14.694Z,3.23
2019-03-09T18:38:43.075Z,3.37
2019-03-09T18:41:14.635Z,3.50
2019-03-09T18:43:43.104Z,3.27
2019-03-09T18:46:13.961Z,3.03
2019-03-09T18:48:42.571Z,2.83
2019-03-09T18:51:11.025Z,3.10
2019-03-09T18:53:39.459Z,3.60
2019-03-09T18:56:08.941Z,3.85
2019-03-09T18:58:37.393Z,3.33
2019-03-09T19:01:05.833Z,3.40
2019-03-09T19:03:34.331Z,2.87
2019-03-09T19:06:03.297Z,3.50
2019-03-09T19:08:32.694Z,2.50
2019-03-09T19:11:01.211Z,3.00
2019-03-09T19:13:29.779Z,3.70
2019-03-09T19:15:58.159Z,2.77
2019-03-09T19:18:26.706Z,3.47
2019-03-09T19:20:55.164Z,4.07
2019-03-09T19:23:23.603Z,3.33
2019-03-09T19:25:52.107Z,3.00
2019-03-09T19:28:20.596Z,2.90
2019-03-09T19:30:50.136Z,2.70
2019-03-09T19:33:18.812Z,3.37
2019-03-09T19:35:47.861Z,2.87
2019-03-09T19:38:22.423Z,2.97
2019-03-09T19:40:52.947Z,3.17
2019-03-09T19:43:24.422Z,3.40
2019-03-09T19:45:53.005Z,3.03
2019-03-09T19:48:21.428Z,3.43
2019-03-09T19:50:49.920Z,3.73
2019-03-09T19:53:18.357Z,3.60
2019-03-09T19:55:46.940Z,3.47
2019-03-09T19:58:15.348Z,3.03
2019-03-09T20:00:43.832Z,3.13
2019-03-09T20:03:12.329Z,2.93
2019-03-09T20:05:40.767Z,3.67
2019-03-09T20:08:09.323Z,3.50
2019-03-09T20:10:37.959Z,4.20
2019-03-09T20:13:06.608Z,2.80
2019-03-09T20:15:35.263Z,3.07
2019-03-09T20:18:03.803Z,4.07
2019-03-09T20:20:32.317Z,3.92
2019-03-09T20:23:00.966Z,3.70
2019-03-09T20:25:29.520Z,3.13
2019-03-09T20:28:05.042Z,3.33
2019-03-09T20:30:33.583Z,3.87
2019-03-09T20:33:02.067Z,3.00
2019-03-09T20:35:38.756Z,3.17
2019-03-09T20:38:07.688Z,3.20
2019-03-09T20:40:37.223Z,4.07
2019-03-09T20:43:05.805Z,5.53
2019-03-09T20:45:34.425Z,4.30
2019-03-09T20:48:02.943Z,5.43
2019-03-09T20:50:32.560Z,5.57
2019-03-09T20:53:01.177Z,4.97
2019-03-09T20:55:29.724Z,4.97
2019-03-09T20:58:02.970Z,4.60
2019-03-09T21:00:33.475Z,4.20
2019-03-09T21:03:02.976Z,4.10
2019-03-09T21:05:31.502Z,4.13
2019-03-09T21:07:59.970Z,5.30
2019-03-09T21:10:28.431Z,5.60
2019-03-09T21:12:58.121Z,5.03
2019-03-09T21:15:26.589Z,5.97
2019-03-09T21:17:57.147Z,5.13
2019-03-09T21:20:25.625Z,5.60
2019-03-09T21:22:56.732Z,5.30
2019-03-09T21:25:25.156Z,5.33
2019-03-09T21:27:53.796Z,5.67
2019-03-09T21:30:22.403Z,5.23
2019-03-09T21:32:50.780Z,4.13
2019-03-09T21:35:19.328Z,3.87
2019-03-09T21:37:47.760Z,5.23
2019-03-09T21:40:20.015Z,4.13
2019-03-09T21:42:48.485Z,4.30
2019-03-09T21:45:16.933Z,4.50
2019-03-09T21:47:45.287Z,4.23
2019-03-09T21:50:14.082Z,3.93
2019-03-09T21:52:42.691Z,4.27
2019-03-09T21:55:11.200Z,4.80
2019-03-09T21:57:39.640Z,6.13
2019-03-09T22:00:08.779Z,4.70
2019-03-09T22:02:37.164Z,4.10
2019-03-09T22:05:12.043Z,4.07
2019-03-09T22:07:40.507Z,3.97
2019-03-09T22:10:09.067Z,4.93
2019-03-09T22:12:37.595Z,3.73
2019-03-09T22:15:06.576Z,4.27
2019-03-09T22:17:35.138Z,4.03
2019-03-09T22:20:03.676Z,3.63
2019-03-09T22:22:32.120Z,4.20
2019-03-09T22:25:02.623Z,3.60
2019-03-09T22:27:31.332Z,4.03
2019-03-09T22:29:59.940Z,3.30
2019-03-09T22:32:28.423Z,3.50
2019-03-09T22:34:56.807Z,3.60
2019-03-09T22:37:25.226Z,3.10
2019-03-09T22:39:53.647Z,3.10
2019-03-09T22:42:22.009Z,4.37
2019-03-09T22:44:50.500Z,3.80
2019-03-09T22:47:19.047Z,4.67
2019-03-09T22:49:47.417Z,4.77
2019-03-09T22:52:15.811Z,4.33
2019-03-09T22:54:46.372Z,5.23
2019-03-09T22:57:14.787Z,4.13
2019-03-09T22:59:43.223Z,4.17
2019-03-09T23:02:11.596Z,4.30
2019-03-09T23:04:40.005Z,3.97
2019-03-09T23:07:08.495Z,3.60
2019-03-09T23:09:36.838Z,3.53
2019-03-09T23:12:07.606Z,3.70
2019-03-09T23:14:36.095Z,3.90
2019-03-09T23:17:04.503Z,3.43
2019-03-09T23:19:33.011Z,3.60
2019-03-09T23:22:02.484Z,3.60
2019-03-09T23:24:30.911Z,3.67
2019-03-09T23:26:59.375Z,3.40
2019-03-09T23:29:27.839Z,3.63
2019-03-09T23:31:56.191Z,3.60
2019-03-09T23:34:24.599Z,3.97
2019-03-09T23:36:53.019Z,3.20
2019-03-09T23:39:21.464Z,4.75
2019-03-09T23:41:49.987Z,3.93
2019-03-09T23:44:18.412Z,4.30
2019-03-09T23:46:47.018Z,5.33
2019-03-09T23:49:15.664Z,4.77
2019-03-09T23:51:44.067Z,5.13
2019-03-09T23:54:12.516Z,4.70
2019-03-09T23:56:41.015Z,6.40
2019-03-09T23:59:09.446Z,6.63
